Time;durP1;ratioP1;P1;durP2;ratioP2;P2;SDS_P1;SDS_P2;PMS_P1;PMS_P2;Temp;Humidity;BMP_temperature;BMP_pressure;BME280_temperature;BME280_humidity;BME280_pressure;Samples;Min_cycle;Max_cycle;Signal;HPM_P1;HPM_P2
2021/11/01 00:00:12;;;;;;;3.20;0.32;;;18.00;70.70;;;;;;5077884;28;20467;-38
2021/11/01 00:02:38;;;;;;;0.73;0.30;;;18.00;70.70;;;;;;5078436;28;20031;-39
2021/11/01 00:05:04;;;;;;;2.40;0.30;;;17.90;70.70;;;;;;5075632;28;20017;-39
2021/11/01 00:07:30;;;;;;;1.38;0.30;;;18.00;70.80;;;;;;5079103;28;20094;-40
2021/11/01 00:09:55;;;;;;;0.93;0.25;;;17.90;70.70;;;;;;5074433;28;20028;-39
2021/11/01 00:12:26;;;;;;;0.30;0.20;;;17.90;70.70;;;;;;5071434;28;20052;-39
2021/11/01 00:14:53;;;;;;;0.77;0.50;;;17.90;70.80;;;;;;5078912;28;20419;-39
2021/11/01 00:17:18;;;;;;;0.73;0.40;;;17.90;70.80;;;;;;5078782;28;20024;-39
2021/11/01 00:19:44;;;;;;;0.55;0.30;;;17.90;70.80;;;;;;5067366;28;20040;-39
2021/11/01 00:22:09;;;;;;;0.30;0.30;;;17.90;70.70;;;;;;5076383;28;20044;-39
2021/11/01 00:24:35;;;;;;;0.38;0.25;;;17.90;70.80;;;;;;5079248;28;20048;-38
2021/11/01 00:27:01;;;;;;;0.20;0.20;;;17.90;70.90;;;;;;5075244;28;20577;-39
2021/11/01 00:29:26;;;;;;;0.55;0.30;;;17.80;70.80;;;;;;5070595;28;20028;-39
2021/11/01 00:31:52;;;;;;;0.50;0.30;;;17.90;70.80;;;;;;5079155;28;20031;-39
2021/11/01 00:34:18;;;;;;;0.77;0.40;;;17.90;70.90;;;;;;5071232;28;20036;-39
2021/11/01 00:36:43;;;;;;;0.30;0.20;;;17.90;70.90;;;;;;5069046;28;20035;-39
2021/11/01 00:39:09;;;;;;;0.40;0.30;;;17.80;70.80;;;;;;5069188;28;20028;-38
2021/11/01 00:41:35;;;;;;;0.63;0.30;;;17.80;70.80;;;;;;5077249;28;20505;-39
2021/11/01 00:44:00;;;;;;;1.70;0.30;;;17.80;70.80;;;;;;5059440;28;20163;-39
2021/11/01 00:46:27;;;;;;;0.15;0.10;;;17.80;70.80;;;;;;5074074;28;20027;-38
2021/11/01 00:48:53;;;;;;;0.17;0.17;;;17.80;70.80;;;;;;5074019;28;20113;-38
2021/11/01 00:51:19;;;;;;;0.30;0.28;;;17.80;70.80;;;;;;5061463;28;20056;-39
2021/11/01 00:53:48;;;;;;;0.40;0.30;;;17.80;70.80;;;;;;5075400;28;20083;-38
2021/11/01 00:56:15;;;;;;;0.28;0.10;;;17.80;70.80;;;;;;5072384;28;20031;-38
2021/11/01 00:58:40;;;;;;;0.22;0.20;;;17.80;70.70;;;;;;5071804;28;20426;-38
2021/11/01 01:01:06;;;;;;;0.45;0.15;;;17.80;70.80;;;;;;5078678;28;20060;-38
2021/11/01 01:03:33;;;;;;;0.40;0.10;;;17.80;70.70;;;;;;5077646;28;20090;-39
2021/11/01 01:06:00;;;;;;;0.20;0.20;;;17.80;70.70;;;;;;5078881;28;20021;-39
2021/11/01 01:08:26;;;;;;;0.20;0.17;;;17.80;70.70;;;;;;5065780;28;20063;-38
2021/11/01 01:10:52;;;;;;;0.30;0.30;;;17.80;70.70;;;;;;5061408;28;20024;-38
2021/11/01 01:13:18;;;;;;;0.30;0.10;;;17.80;70.70;;;;;;5076052;28;20031;-38
2021/11/01 01:16:01;;;;;;;0.40;0.20;;;17.80;70.70;;;;;;5075341;28;20024;-39
2021/11/01 01:18:33;;;;;;;0.10;0.10;;;17.80;70.70;;;;;;5064004;28;20044;-38
2021/11/01 01:21:02;;;;;;;0.82;0.10;;;17.80;70.60;;;;;;5077946;28;20045;-38
2021/11/01 01:23:27;;;;;;;0.10;0.10;;;17.70;70.60;;;;;;5076870;28;20029;-39
2021/11/01 01:25:55;;;;;;;1.00;0.20;;;17.70;70.60;;;;;;5077553;28;20070;-39
2021/11/01 01:28:24;;;;;;;0.28;0.13;;;17.70;70.60;;;;;;5072143;28;20025;-38
2021/11/01 01:30:50;;;;;;;0.05;0.05;;;17.70;70.60;;;;;;5055812;28;20081;-38
2021/11/01 01:33:15;;;;;;;0.20;0.20;;;17.70;70.40;;;;;;5058300;28;20029;-38
2021/11/01 01:35:41;;;;;;;0.22;0.20;;;17.70;70.50;;;;;;5065569;28;20033;-39
2021/11/01 01:38:08;;;;;;;0.15;0.10;;;17.70;70.40;;;;;;5078720;28;20503;-38
2021/11/01 01:40:34;;;;;;;1.15;0.47;;;17.70;70.40;;;;;;5058603;28;20029;-38
2021/11/01 01:43:00;;;;;;;0.20;0.03;;;17.70;70.40;;;;;;5062868;28;20113;-38
2021/11/01 01:45:26;;;;;;;0.22;0.20;;;17.70;70.30;;;;;;5058446;28;20039;-38
2021/11/01 01:47:53;;;;;;;1.58;0.13;;;17.70;70.30;;;;;;5076785;28;20485;-38
2021/11/01 01:50:18;;;;;;;0.55;0.30;;;17.70;70.40;;;;;;5073920;28;20036;-38
2021/11/01 01:52:45;;;;;;;0.20;0.20;;;17.70;70.30;;;;;;5078274;28;20051;-39
2021/11/01 01:55:11;;;;;;;0.20;0.20;;;17.70;70.30;;;;;;5071817;28;20056;-38
2021/11/01 01:57:37;;;;;;;0.32;0.20;;;17.70;70.30;;;;;;5076030;28;20093;-38
2021/11/01 02:00:15;;;;;;;0.10;0.10;;;17.70;70.30;;;;;;5067560;28;20045;-38
2021/11/01 02:02:42;;;;;;;0.90;0.20;;;17.70;70.30;;;;;;5077488;28;20036;-39
2021/11/01 02:05:08;;;;;;;0.65;0.10;;;17.70;70.20;;;;;;5067238;28;20053;-38
2021/11/01 02:07:59;;;;;;;0.82;0.20;;;17.70;70.10;;;;;;5072141;28;20031;-39
2021/11/01 02:10:34;;;;;;;0.20;0.10;;;17.60;70.10;;;;;;5059677;28;20037;-39
2021/11/01 02:13:06;;;;;;;1.60;0.20;;;17.70;70.10;;;;;;5073589;28;20043;-39
2021/11/01 02:15:41;;;;;;;0.38;0.20;;;17.60;70.00;;;;;;5074067;28;20162;-39
2021/11/01 02:18:07;;;;;;;0.22;0.10;;;17.70;70.20;;;;;;5059547;28;20375;-39
2021/11/01 02:20:36;;;;;;;0.38;0.38;;;17.70;70.10;;;;;;5059089;28;20047;-39
2021/11/01 02:23:13;;;;;;;0.08;0.08;;;17.60;70.10;;;;;;5075860;28;20032;-39
2021/11/01 02:25:40;;;;;;;0.28;0.20;;;17.60;70.10;;;;;;5072990;28;20025;-38
2021/11/01 02:28:11;;;;;;;0.20;0.17;;;17.70;70.00;;;;;;5074173;28;20017;-39
2021/11/01 02:30:40;;;;;;;0.10;0.10;;;17.70;69.80;;;;;;5076331;28;20028;-38
2021/11/01 02:33:07;;;;;;;0.30;0.10;;;17.60;70.00;;;;;;5075004;28;20029;-39
2021/11/01 02:35:32;;;;;;;0.17;0.10;;;17.60;70.00;;;;;;5059976;28;20042;-38
2021/11/01 02:37:58;;;;;;;0.10;0.10;;;17.60;70.00;;;;;;5058382;28;20029;-38
2021/11/01 02:40:30;;;;;;;0.40;0.20;;;17.60;70.00;;;;;;5069863;28;20033;-38
2021/11/01 02:42:56;;;;;;;0.00;0.00;;;17.60;70.00;;;;;;5059694;28;20021;-39
2021/11/01 02:45:22;;;;;;;0.10;0.10;;;17.60;69.80;;;;;;5074832;28;20032;-38
2021/11/01 02:47:47;;;;;;;0.17;0.10;;;17.60;69.90;;;;;;5069153;28;20040;-39
2021/11/01 02:50:15;;;;;;;0.50;0.20;;;17.60;69.90;;;;;;5059686;28;20104;-39
2021/11/01 02:52:41;;;;;;;0.30;0.10;;;17.60;69.70;;;;;;5065081;28;20090;-38
2021/11/01 02:55:08;;;;;;;0.52;0.10;;;17.60;69.50;;;;;;5076539;28;20028;-38
2021/11/01 02:57:34;;;;;;;0.00;0.00;;;17.60;69.40;;;;;;5062174;28;20468;-38
2021/11/01 03:00:00;;;;;;;0.10;0.10;;;17.70;70.20;;;;;;5073031;28;20039;-39
2021/11/01 03:02:26;;;;;;;0.25;0.10;;;17.60;70.10;;;;;;5072004;28;20021;-39
2021/11/01 03:04:51;;;;;;;0.10;0.10;;;17.60;70.00;;;;;;5068373;28;20644;-38
2021/11/01 03:07:18;;;;;;;0.20;0.17;;;17.60;70.00;;;;;;5063800;28;20028;-38
2021/11/01 03:09:45;;;;;;;0.20;0.10;;;17.60;70.00;;;;;;5075338;28;20507;-38
2021/11/01 03:12:12;;;;;;;0.30;0.10;;;17.60;69.90;;;;;;5072232;28;20021;-39
2021/11/01 03:14:45;;;;;;;0.10;0.10;;;17.60;69.90;;;;;;5061675;28;20093;-38
2021/11/01 03:17:13;;;;;;;0.10;0.10;;;17.60;69.80;;;;;;5076583;28;20039;-38
2021/11/01 03:19:39;;;;;;;0.05;0.05;;;17.60;69.90;;;;;;5055682;28;20029;-38
2021/11/01 03:22:05;;;;;;;0.00;0.00;;;17.60;69.80;;;;;;5058657;28;20045;-38
2021/11/01 03:24:33;;;;;;;0.10;0.10;;;17.60;69.80;;;;;;5075410;28;20024;-38
2021/11/01 03:26:58;;;;;;;0.10;0.10;;;17.60;69.80;;;;;;5075964;28;20045;-38
2021/11/01 03:29:24;;;;;;;0.68;0.20;;;17.60;69.70;;;;;;5074561;28;20395;-38
2021/11/01 03:31:50;;;;;;;0.80;0.20;;;17.60;69.80;;;;;;5075494;28;20028;-39
2021/11/01 03:34:16;;;;;;;0.20;0.10;;;17.60;69.60;;;;;;5075798;28;20058;-38
2021/11/01 03:36:41;;;;;;;0.10;0.10;;;17.60;69.80;;;;;;5045525;28;20039;-38
2021/11/01 03:39:09;;;;;;;0.17;0.10;;;17.60;69.60;;;;;;5074965;28;20040;-38
2021/11/01 03:41:35;;;;;;;0.32;0.20;;;17.60;69.60;;;;;;5073925;28;20047;-38
2021/11/01 03:44:04;;;;;;;1.10;0.10;;;17.60;69.60;;;;;;5068794;28;20021;-38
2021/11/01 03:46:38;;;;;;;0.35;0.20;;;17.60;69.40;;;;;;5070523;28;20020;-39
2021/11/01 03:49:05;;;;;;;0.45;0.13;;;17.60;69.60;;;;;;5068904;28;20410;-38
2021/11/01 03:54:06;;;;;;;0.10;0.10;;;17.50;69.30;;;;;;5068725;28;20036;-38
2021/11/01 03:56:33;;;;;;;0.15;0.10;;;17.60;69.60;;;;;;5062217;28;20039;-38
2021/11/01 03:58:58;;;;;;;0.15;0.08;;;17.60;69.20;;;;;;5069017;28;20029;-39
2021/11/01 04:01:24;;;;;;;0.20;0.10;;;17.60;69.20;;;;;;5074833;28;20494;-39
2021/11/01 04:03:49;;;;;;;0.52;0.10;;;17.60;69.50;;;;;;5074287;28;20475;-38
2021/11/01 04:06:18;;;;;;;0.20;0.20;;;17.50;69.40;;;;;;5076705;28;20039;-38
2021/11/01 04:08:43;;;;;;;0.20;0.05;;;17.50;69.40;;;;;;5061544;28;20025;-39
2021/11/01 04:11:11;;;;;;;0.15;0.10;;;17.50;69.40;;;;;;5075089;28;20032;-39
2021/11/01 04:13:37;;;;;;;0.10;0.10;;;17.50;69.40;;;;;;5065498;28;20040;-39
2021/11/01 04:16:10;;;;;;;0.28;0.13;;;17.50;69.30;;;;;;5072719;28;20100;-39
2021/11/01 04:21:22;;;;;;;0.10;0.10;;;17.50;69.40;;;;;;5040081;28;20056;-39
2021/11/01 04:23:48;;;;;;;0.50;0.30;;;17.50;69.20;;;;;;5070173;28;20056;-39
2021/11/01 04:26:18;;;;;;;0.40;0.28;;;17.50;69.40;;;;;;5066855;28;20070;-39
2021/11/01 04:28:44;;;;;;;0.43;0.13;;;17.50;69.20;;;;;;5075153;28;20363;-39
2021/11/01 04:31:13;;;;;;;0.57;0.20;;;17.50;69.30;;;;;;5079378;28;20021;-38
2021/11/01 04:33:41;;;;;;;0.38;0.10;;;17.50;69.30;;;;;;5079953;28;20063;-38
2021/11/01 04:36:07;;;;;;;0.17;0.10;;;17.50;69.10;;;;;;5075732;28;20020;-38
2021/11/01 04:41:52;;;;;;;0.70;0.20;;;17.50;69.30;;;;;;5034484;28;20038;-39
2021/11/01 04:55:06;;;;;;;0.40;0.10;;;17.50;68.90;;;;;;5066055;28;20640;-38
2021/11/01 04:57:31;;;;;;;0.20;0.05;;;17.50;69.00;;;;;;5077728;28;20103;-40
2021/11/01 04:59:57;;;;;;;0.10;0.10;;;17.50;69.00;;;;;;5078028;28;20028;-38
2021/11/01 05:02:25;;;;;;;0.13;0.10;;;17.50;68.90;;;;;;5077402;28;20017;-38
2021/11/01 05:04:52;;;;;;;0.32;0.17;;;17.50;69.00;;;;;;5070989;28;20057;-38
2021/11/01 05:07:18;;;;;;;0.10;0.10;;;17.50;69.00;;;;;;5072295;28;20024;-38
2021/11/01 05:10:00;;;;;;;0.10;0.00;;;17.50;68.80;;;;;;5076664;28;20032;-38
2021/11/01 05:12:32;;;;;;;1.10;0.40;;;17.50;69.00;;;;;;5073401;28;20028;-38
2021/11/01 05:20:29;;;;;;;0.10;0.10;;;17.50;68.70;;;;;;5074845;28;20070;-38
2021/11/01 05:30:49;;;;;;;0.28;0.10;;;17.50;68.60;;;;;;5074877;28;20571;-39
2021/11/01 05:35:41;;;;;;;0.10;0.10;;;17.50;68.60;;;;;;5078361;28;20032;-39
2021/11/01 05:38:07;;;;;;;0.10;0.10;;;17.50;68.60;;;;;;5074508;28;20029;-38
2021/11/01 05:40:34;;;;;;;0.38;0.17;;;17.40;68.80;;;;;;5078313;28;20134;-39
2021/11/01 05:43:00;;;;;;;0.30;0.17;;;17.50;68.50;;;;;;5062660;28;20036;-38
2021/11/01 05:45:25;;;;;;;0.40;0.22;;;17.40;68.80;;;;;;5076581;28;20426;-38
2021/11/01 05:47:58;;;;;;;0.30;0.10;;;17.40;68.80;;;;;;5074138;28;20108;-38
2021/11/01 05:50:25;;;;;;;0.65;0.20;;;17.50;68.60;;;;;;5073874;28;20051;-39
2021/11/01 05:52:51;;;;;;;0.20;0.10;;;17.40;68.50;;;;;;5075617;28;20046;-39
2021/11/01 05:55:33;;;;;;;0.30;0.20;;;17.40;68.60;;;;;;5070990;28;20029;-39
2021/11/01 06:03:10;;;;;;;0.10;0.10;;;17.40;68.70;;;;;;5076983;28;20024;-39
2021/11/01 06:13:25;;;;;;;0.30;0.30;;;17.40;68.50;;;;;;5075720;28;20044;-38
2021/11/01 06:13:38;;;;;;;0.30;0.20;;;17.40;68.50;;;;;;5075731;28;20416;-39
2021/11/01 06:16:03;;;;;;;0.08;0.08;;;17.40;68.30;;;;;;5077896;28;20127;-38
2021/11/01 06:18:35;;;;;;;0.20;0.00;;;17.50;68.30;;;;;;5073026;28;20028;-38
2021/11/01 06:21:08;;;;;;;0.20;0.13;;;17.40;68.40;;;;;;5073395;28;20462;-38
2021/11/01 06:23:35;;;;;;;0.10;0.10;;;17.40;68.30;;;;;;5075447;28;20131;-38
2021/11/01 06:26:01;;;;;;;0.10;0.10;;;17.40;68.30;;;;;;5075425;28;20032;-39
2021/11/01 06:28:27;;;;;;;0.20;0.10;;;17.40;68.30;;;;;;5077660;28;20021;-38
2021/11/01 06:30:58;;;;;;;0.10;0.08;;;17.40;68.40;;;;;;5071618;28;20028;-39
2021/11/01 07:16:07;;;;;;;0.20;0.20;;;17.40;68.20;;;;;;5068479;28;20101;-38
2021/11/01 07:18:42;;;;;;;0.08;0.08;;;17.40;68.30;;;;;;5076053;28;20032;-39
2021/11/01 08:38:03;;;;;;;0.70;0.70;;;18.00;68.50;;;;;;5076732;28;20024;-43
2021/11/01 08:45:59;;;;;;;1.27;0.50;;;18.00;68.50;;;;;;5074731;28;20056;-43
2021/11/01 08:48:40;;;;;;;1.13;0.50;;;18.00;68.60;;;;;;5076283;28;20112;-44
2021/11/01 09:02:24;;;;;;;0.30;0.30;;;18.10;68.40;;;;;;5073106;28;20043;-46
2021/11/01 09:07:53;;;;;;;0.85;0.20;;;18.10;68.50;;;;;;5076827;28;20028;-43
2021/11/01 09:18:51;;;;;;;0.77;0.28;;;18.00;68.60;;;;;;5052543;28;20085;-43
2021/11/01 09:36:48;;;;;;;0.47;0.30;;;18.10;68.20;;;;;;5073781;28;20071;-38
2021/11/01 09:41:42;;;;;;;1.70;1.60;;;18.20;68.10;;;;;;5069688;28;20143;-44
2021/11/01 09:44:12;;;;;;;3.30;3.10;;;18.20;68.60;;;;;;5074720;28;20041;-43
2021/11/01 09:46:37;;;;;;;2.20;2.10;;;18.10;68.90;;;;;;5073698;28;20048;-42
2021/11/01 09:49:16;;;;;;;1.90;1.38;;;18.10;68.80;;;;;;5068682;28;20017;-42
2021/11/01 09:51:43;;;;;;;1.33;1.23;;;18.10;68.80;;;;;;5071756;28;20040;-45
2021/11/01 09:54:18;;;;;;;3.42;1.23;;;18.10;68.70;;;;;;5070460;28;20115;-51
2021/11/01 09:57:03;;;;;;;1.05;0.98;;;18.10;68.70;;;;;;5072518;28;20037;-48
2021/11/01 09:59:34;;;;;;;1.23;1.10;;;18.10;68.70;;;;;;5073491;28;20494;-47
2021/11/01 10:02:00;;;;;;;0.70;0.70;;;18.10;68.60;;;;;;5072781;28;20064;-44
2021/11/01 10:04:31;;;;;;;2.35;1.00;;;18.10;68.60;;;;;;5076627;28;20032;-44
2021/11/01 10:07:24;;;;;;;1.63;1.20;;;18.20;68.30;;;;;;5074555;28;20025;-54
2021/11/01 10:10:07;;;;;;;0.80;0.80;;;18.20;68.90;;;;;;5069304;28;20020;-45
2021/11/01 10:12:35;;;;;;;0.60;0.60;;;18.20;68.40;;;;;;5073915;28;20067;-40
2021/11/01 10:18:00;;;;;;;5.13;4.57;;;18.30;68.20;;;;;;5069842;28;20112;-39
2021/11/01 10:20:27;;;;;;;4.25;4.05;;;18.30;69.00;;;;;;5068420;28;20092;-43
2021/11/01 10:22:53;;;;;;;3.58;3.38;;;18.20;68.90;;;;;;5066182;28;20057;-40
2021/11/01 10:25:19;;;;;;;2.60;2.40;;;18.20;69.00;;;;;;5077039;28;20090;-43
2021/11/01 10:27:51;;;;;;;2.35;2.15;;;18.20;68.90;;;;;;5076216;28;20418;-41
2021/11/01 10:30:18;;;;;;;2.60;2.42;;;18.20;68.90;;;;;;5073640;28;20040;-38
2021/11/01 10:32:46;;;;;;;1.90;1.80;;;18.20;68.80;;;;;;5075678;28;20463;-49
2021/11/01 10:35:21;;;;;;;1.90;1.80;;;18.20;68.60;;;;;;5075159;28;20088;-46
2021/11/01 10:40:39;;;;;;;1.65;1.55;;;18.20;68.70;;;;;;5075908;28;20032;-40
2021/11/01 10:43:18;;;;;;;1.67;1.58;;;18.20;68.80;;;;;;5069402;28;20032;-43
